sensor_id;sensor_type;location;lat;lon;timestamp;P1;durP1;ratioP1;P2;durP2;ratioP2
52878;SDS011;38747;53.140;6.498;2023-02-28T00:00:25;11.25;;;3.67;;
52878;SDS011;38747;53.140;6.498;2023-02-28T00:02:50;11.30;;;3.33;;
52878;SDS011;38747;53.140;6.498;2023-02-28T00:05:17;9.95;;;3.58;;
52878;SDS011;38747;53.140;6.498;2023-02-28T00:07:45;8.48;;;3.50;;
52878;SDS011;38747;53.140;6.498;2023-02-28T00:10:14;11.25;;;3.67;;
52878;SDS011;38747;53.140;6.498;2023-02-28T00:12:46;11.47;;;3.50;;
52878;SDS011;38747;53.140;6.498;2023-02-28T00:15:12;8.60;;;3.80;;
52878;SDS011;38747;53.140;6.498;2023-02-28T00:17:38;7.95;;;3.70;;
52878;SDS011;38747;53.140;6.498;2023-02-28T00:20:04;11.50;;;4.30;;
52878;SDS011;38747;53.140;6.498;2023-02-28T00:22:35;12.38;;;3.85;;
52878;SDS011;38747;53.140;6.498;2023-02-28T00:25:02;8.70;;;3.78;;
52878;SDS011;38747;53.140;6.498;2023-02-28T00:27:29;11.45;;;3.65;;
52878;SDS011;38747;53.140;6.498;2023-02-28T00:29:55;11.47;;;3.50;;
52878;SDS011;38747;53.140;6.498;2023-02-28T00:32:20;10.45;;;4.18;;
52878;SDS011;38747;53.140;6.498;2023-02-28T00:34:46;9.25;;;3.90;;
52878;SDS011;38747;53.140;6.498;2023-02-28T00:37:12;10.03;;;3.70;;
52878;SDS011;38747;53.140;6.498;2023-02-28T00:39:38;10.38;;;3.90;;
52878;SDS011;38747;53.140;6.498;2023-02-28T00:42:04;10.33;;;3.33;;
52878;SDS011;38747;53.140;6.498;2023-02-28T00:44:31;9.95;;;3.63;;
52878;SDS011;38747;53.140;6.498;2023-02-28T00:46:57;11.70;;;4.10;;
52878;SDS011;38747;53.140;6.498;2023-02-28T00:49:24;9.20;;;3.38;;
52878;SDS011;38747;53.140;6.498;2023-02-28T00:51:50;8.82;;;3.88;;
52878;SDS011;38747;53.140;6.498;2023-02-28T00:54:16;10.23;;;4.03;;
52878;SDS011;38747;53.140;6.498;2023-02-28T00:56:42;9.13;;;3.60;;
52878;SDS011;38747;53.140;6.498;2023-02-28T00:59:08;9.90;;;3.60;;
52878;SDS011;38747;53.140;6.498;2023-02-28T01:01:34;9.27;;;3.90;;
52878;SDS011;38747;53.140;6.498;2023-02-28T01:04:00;13.38;;;4.30;;
52878;SDS011;38747;53.140;6.498;2023-02-28T01:06:25;10.57;;;4.53;;
52878;SDS011;38747;53.140;6.498;2023-02-28T01:08:51;11.23;;;4.32;;
52878;SDS011;38747;53.140;6.498;2023-02-28T01:11:18;13.82;;;4.03;;
52878;SDS011;38747;53.140;6.498;2023-02-28T01:13:44;9.70;;;3.70;;
52878;SDS011;38747;53.140;6.498;2023-02-28T01:16:10;15.88;;;4.72;;
52878;SDS011;38747;53.140;6.498;2023-02-28T01:18:37;10.85;;;4.10;;
52878;SDS011;38747;53.140;6.498;2023-02-28T01:21:03;9.60;;;4.22;;
52878;SDS011;38747;53.140;6.498;2023-02-28T01:23:29;9.80;;;3.97;;
52878;SDS011;38747;53.140;6.498;2023-02-28T01:25:55;9.55;;;4.20;;
52878;SDS011;38747;53.140;6.498;2023-02-28T01:28:21;12.17;;;4.30;;
52878;SDS011;38747;53.140;6.498;2023-02-28T01:30:47;10.48;;;4.22;;
52878;SDS011;38747;53.140;6.498;2023-02-28T01:33:16;10.23;;;4.32;;
52878;SDS011;38747;53.140;6.498;2023-02-28T01:35:42;11.13;;;4.63;;
52878;SDS011;38747;53.140;6.498;2023-02-28T01:38:07;10.40;;;4.32;;
52878;SDS011;38747;53.140;6.498;2023-02-28T01:40:33;12.73;;;4.23;;
52878;SDS011;38747;53.140;6.498;2023-02-28T01:42:58;8.82;;;4.30;;
52878;SDS011;38747;53.140;6.498;2023-02-28T01:45:31;11.87;;;4.60;;
52878;SDS011;38747;53.140;6.498;2023-02-28T01:48:00;10.45;;;4.32;;
52878;SDS011;38747;53.140;6.498;2023-02-28T01:50:29;11.30;;;4.45;;
52878;SDS011;38747;53.140;6.498;2023-02-28T01:53:00;10.63;;;4.30;;
52878;SDS011;38747;53.140;6.498;2023-02-28T01:55:29;10.40;;;4.25;;
52878;SDS011;38747;53.140;6.498;2023-02-28T01:57:57;12.88;;;4.80;;
52878;SDS011;38747;53.140;6.498;2023-02-28T02:00:26;11.48;;;4.47;;
52878;SDS011;38747;53.140;6.498;2023-02-28T02:02:55;11.13;;;4.30;;
52878;SDS011;38747;53.140;6.498;2023-02-28T02:05:26;12.43;;;4.30;;
52878;SDS011;38747;53.140;6.498;2023-02-28T02:07:56;10.15;;;4.30;;
52878;SDS011;38747;53.140;6.498;2023-02-28T02:10:35;12.93;;;4.80;;
52878;SDS011;38747;53.140;6.498;2023-02-28T02:15:56;10.45;;;4.18;;
52878;SDS011;38747;53.140;6.498;2023-02-28T02:18:46;12.20;;;4.80;;
52878;SDS011;38747;53.140;6.498;2023-02-28T02:21:36;10.25;;;4.05;;
52878;SDS011;38747;53.140;6.498;2023-02-28T02:27:20;8.65;;;4.10;;
52878;SDS011;38747;53.140;6.498;2023-02-28T02:35:27;12.05;;;4.53;;
52878;SDS011;38747;53.140;6.498;2023-02-28T02:38:09;9.05;;;4.32;;
52878;SDS011;38747;53.140;6.498;2023-02-28T02:41:01;11.45;;;4.65;;
52878;SDS011;38747;53.140;6.498;2023-02-28T02:43:44;12.07;;;4.25;;
52878;SDS011;38747;53.140;6.498;2023-02-28T02:46:19;10.00;;;4.33;;
52878;SDS011;38747;53.140;6.498;2023-02-28T02:48:47;10.23;;;4.20;;
52878;SDS011;38747;53.140;6.498;2023-02-28T02:51:16;10.38;;;4.38;;
52878;SDS011;38747;53.140;6.498;2023-02-28T02:53:47;10.93;;;4.45;;
52878;SDS011;38747;53.140;6.498;2023-02-28T02:56:24;11.45;;;4.53;;
52878;SDS011;38747;53.140;6.498;2023-02-28T02:58:53;10.37;;;4.13;;
52878;SDS011;38747;53.140;6.498;2023-02-28T03:01:23;12.25;;;4.35;;
52878;SDS011;38747;53.140;6.498;2023-02-28T03:03:55;10.10;;;3.90;;
52878;SDS011;38747;53.140;6.498;2023-02-28T03:06:22;11.30;;;3.90;;
52878;SDS011;38747;53.140;6.498;2023-02-28T03:08:48;11.40;;;4.75;;
52878;SDS011;38747;53.140;6.498;2023-02-28T03:11:14;9.53;;;5.20;;
52878;SDS011;38747;53.140;6.498;2023-02-28T03:22:22;14.30;;;6.63;;
52878;SDS011;38747;53.140;6.498;2023-02-28T03:24:53;14.87;;;7.10;;
52878;SDS011;38747;53.140;6.498;2023-02-28T03:27:42;15.15;;;7.05;;
52878;SDS011;38747;53.140;6.498;2023-02-28T03:35:32;15.02;;;6.88;;
52878;SDS011;38747;53.140;6.498;2023-02-28T03:38:45;15.57;;;6.77;;
52878;SDS011;38747;53.140;6.498;2023-02-28T03:41:05;13.32;;;6.28;;
52878;SDS011;38747;53.140;6.498;2023-02-28T03:43:38;15.63;;;6.18;;
52878;SDS011;38747;53.140;6.498;2023-02-28T03:46:10;12.32;;;6.40;;
52878;SDS011;38747;53.140;6.498;2023-02-28T03:48:44;14.55;;;6.20;;
52878;SDS011;38747;53.140;6.498;2023-02-28T03:51:16;12.53;;;5.87;;
52878;SDS011;38747;53.140;6.498;2023-02-28T03:53:50;14.48;;;6.47;;
52878;SDS011;38747;53.140;6.498;2023-02-28T03:56:30;13.95;;;6.70;;
52878;SDS011;38747;53.140;6.498;2023-02-28T04:01:45;11.77;;;6.43;;
52878;SDS011;38747;53.140;6.498;2023-02-28T04:04:13;12.67;;;6.53;;
52878;SDS011;38747;53.140;6.498;2023-02-28T04:06:41;17.55;;;6.40;;
52878;SDS011;38747;53.140;6.498;2023-02-28T04:09:08;15.82;;;6.15;;
52878;SDS011;38747;53.140;6.498;2023-02-28T04:11:38;14.38;;;6.70;;
52878;SDS011;38747;53.140;6.498;2023-02-28T04:14:05;11.30;;;6.00;;
52878;SDS011;38747;53.140;6.498;2023-02-28T04:16:32;12.00;;;6.23;;
52878;SDS011;38747;53.140;6.498;2023-02-28T04:18:59;11.60;;;5.72;;
52878;SDS011;38747;53.140;6.498;2023-02-28T04:21:30;11.15;;;5.50;;
52878;SDS011;38747;53.140;6.498;2023-02-28T04:23:56;11.23;;;4.70;;
52878;SDS011;38747;53.140;6.498;2023-02-28T04:26:31;9.73;;;4.30;;
52878;SDS011;38747;53.140;6.498;2023-02-28T04:28:59;9.07;;;4.23;;
52878;SDS011;38747;53.140;6.498;2023-02-28T04:31:25;9.32;;;4.30;;
52878;SDS011;38747;53.140;6.498;2023-02-28T04:33:50;8.50;;;4.40;;
52878;SDS011;38747;53.140;6.498;2023-02-28T04:36:16;12.13;;;4.43;;
52878;SDS011;38747;53.140;6.498;2023-02-28T04:38:45;10.07;;;4.15;;
52878;SDS011;38747;53.140;6.498;2023-02-28T04:41:14;9.35;;;3.95;;
52878;SDS011;38747;53.140;6.498;2023-02-28T04:43:40;9.60;;;4.27;;
52878;SDS011;38747;53.140;6.498;2023-02-28T04:46:05;10.18;;;4.18;;
52878;SDS011;38747;53.140;6.498;2023-02-28T04:48:33;11.40;;;4.33;;
52878;SDS011;38747;53.140;6.498;2023-02-28T04:51:01;10.43;;;4.70;;
52878;SDS011;38747;53.140;6.498;2023-02-28T04:53:28;11.05;;;4.40;;
52878;SDS011;38747;53.140;6.498;2023-02-28T04:55:54;10.85;;;4.72;;
52878;SDS011;38747;53.140;6.498;2023-02-28T04:58:20;10.63;;;4.85;;
52878;SDS011;38747;53.140;6.498;2023-02-28T05:00:48;9.77;;;4.70;;
52878;SDS011;38747;53.140;6.498;2023-02-28T05:03:14;12.38;;;5.00;;
52878;SDS011;38747;53.140;6.498;2023-02-28T05:05:40;13.32;;;5.10;;
52878;SDS011;38747;53.140;6.498;2023-02-28T05:08:06;10.67;;;5.20;;
52878;SDS011;38747;53.140;6.498;2023-02-28T05:10:31;11.80;;;5.07;;
52878;SDS011;38747;53.140;6.498;2023-02-28T05:12:57;13.00;;;5.67;;
52878;SDS011;38747;53.140;6.498;2023-02-28T05:15:23;11.23;;;5.35;;
52878;SDS011;38747;53.140;6.498;2023-02-28T05:17:49;12.27;;;5.70;;
52878;SDS011;38747;53.140;6.498;2023-02-28T05:20:15;12.53;;;5.13;;
52878;SDS011;38747;53.140;6.498;2023-02-28T05:22:41;12.00;;;5.38;;
52878;SDS011;38747;53.140;6.498;2023-02-28T05:25:09;11.30;;;5.30;;
52878;SDS011;38747;53.140;6.498;2023-02-28T05:27:37;12.35;;;5.43;;
52878;SDS011;38747;53.140;6.498;2023-02-28T05:30:03;10.67;;;5.27;;
52878;SDS011;38747;53.140;6.498;2023-02-28T05:32:31;10.55;;;5.32;;
52878;SDS011;38747;53.140;6.498;2023-02-28T05:34:56;14.00;;;5.90;;
52878;SDS011;38747;53.140;6.498;2023-02-28T05:37:22;12.93;;;6.15;;
52878;SDS011;38747;53.140;6.498;2023-02-28T05:39:47;12.37;;;5.57;;
52878;SDS011;38747;53.140;6.498;2023-02-28T05:42:13;15.57;;;5.60;;
52878;SDS011;38747;53.140;6.498;2023-02-28T05:44:38;11.37;;;5.90;;
52878;SDS011;38747;53.140;6.498;2023-02-28T05:47:04;14.60;;;6.10;;
52878;SDS011;38747;53.140;6.498;2023-02-28T05:49:30;12.07;;;6.03;;
52878;SDS011;38747;53.140;6.498;2023-02-28T05:51:55;13.47;;;5.73;;
52878;SDS011;38747;53.140;6.498;2023-02-28T05:54:21;14.15;;;6.00;;
52878;SDS011;38747;53.140;6.498;2023-02-28T05:56:46;12.37;;;6.00;;
52878;SDS011;38747;53.140;6.498;2023-02-28T05:59:14;11.98;;;5.32;;
52878;SDS011;38747;53.140;6.498;2023-02-28T06:01:41;10.60;;;5.30;;
52878;SDS011;38747;53.140;6.498;2023-02-28T06:04:13;11.32;;;6.00;;
52878;SDS011;38747;53.140;6.498;2023-02-28T06:06:43;12.63;;;5.57;;
52878;SDS011;38747;53.140;6.498;2023-02-28T06:09:09;11.38;;;5.50;;
52878;SDS011;38747;53.140;6.498;2023-02-28T06:11:35;12.93;;;5.90;;
52878;SDS011;38747;53.140;6.498;2023-02-28T06:14:01;13.85;;;6.05;;
52878;SDS011;38747;53.140;6.498;2023-02-28T06:16:30;12.63;;;5.95;;
52878;SDS011;38747;53.140;6.498;2023-02-28T06:18:57;13.60;;;6.03;;
52878;SDS011;38747;53.140;6.498;2023-02-28T06:21:24;15.88;;;7.03;;
52878;SDS011;38747;53.140;6.498;2023-02-28T06:23:50;13.85;;;7.43;;
52878;SDS011;38747;53.140;6.498;2023-02-28T06:26:15;16.63;;;7.50;;
52878;SDS011;38747;53.140;6.498;2023-02-28T06:28:41;16.98;;;8.45;;
52878;SDS011;38747;53.140;6.498;2023-02-28T06:31:08;14.70;;;7.17;;
52878;SDS011;38747;53.140;6.498;2023-02-28T06:33:35;16.77;;;7.88;;
52878;SDS011;38747;53.140;6.498;2023-02-28T06:36:02;14.07;;;7.50;;
52878;SDS011;38747;53.140;6.498;2023-02-28T06:38:28;16.02;;;7.72;;
52878;SDS011;38747;53.140;6.498;2023-02-28T06:40:54;14.63;;;7.67;;
52878;SDS011;38747;53.140;6.498;2023-02-28T06:43:21;15.52;;;7.50;;
52878;SDS011;38747;53.140;6.498;2023-02-28T06:45:48;20.17;;;8.63;;
52878;SDS011;38747;53.140;6.498;2023-02-28T06:48:14;16.03;;;7.47;;
52878;SDS011;38747;53.140;6.498;2023-02-28T06:50:40;17.83;;;7.95;;
52878;SDS011;38747;53.140;6.498;2023-02-28T06:53:05;14.80;;;7.87;;
52878;SDS011;38747;53.140;6.498;2023-02-28T06:55:31;16.55;;;7.65;;
52878;SDS011;38747;53.140;6.498;2023-02-28T06:57:57;18.27;;;8.03;;
52878;SDS011;38747;53.140;6.498;2023-02-28T07:00:23;17.05;;;7.50;;
52878;SDS011;38747;53.140;6.498;2023-02-28T07:02:49;16.58;;;7.82;;
52878;SDS011;38747;53.140;6.498;2023-02-28T07:05:15;17.07;;;7.53;;
52878;SDS011;38747;53.140;6.498;2023-02-28T07:07:41;16.23;;;7.90;;
52878;SDS011;38747;53.140;6.498;2023-02-28T07:10:12;17.25;;;8.15;;
52878;SDS011;38747;53.140;6.498;2023-02-28T07:12:40;15.45;;;7.80;;
52878;SDS011;38747;53.140;6.498;2023-02-28T07:15:06;16.00;;;7.80;;
52878;SDS011;38747;53.140;6.498;2023-02-28T07:17:32;14.75;;;7.30;;
52878;SDS011;38747;53.140;6.498;2023-02-28T07:19:58;13.90;;;7.47;;
52878;SDS011;38747;53.140;6.498;2023-02-28T07:22:23;14.68;;;7.45;;
52878;SDS011;38747;53.140;6.498;2023-02-28T07:24:49;16.77;;;8.00;;
52878;SDS011;38747;53.140;6.498;2023-02-28T07:27:15;15.25;;;7.57;;
52878;SDS011;38747;53.140;6.498;2023-02-28T07:29:48;18.73;;;7.50;;
52878;SDS011;38747;53.140;6.498;2023-02-28T07:32:14;16.10;;;7.20;;
52878;SDS011;38747;53.140;6.498;2023-02-28T07:34:40;15.25;;;7.78;;
52878;SDS011;38747;53.140;6.498;2023-02-28T07:37:06;14.77;;;7.40;;
52878;SDS011;38747;53.140;6.498;2023-02-28T07:39:31;16.42;;;7.80;;
52878;SDS011;38747;53.140;6.498;2023-02-28T07:41:57;16.53;;;7.60;;
52878;SDS011;38747;53.140;6.498;2023-02-28T07:44:24;18.17;;;7.47;;
52878;SDS011;38747;53.140;6.498;2023-02-28T07:46:50;15.75;;;7.10;;
52878;SDS011;38747;53.140;6.498;2023-02-28T07:49:17;15.25;;;7.90;;
52878;SDS011;38747;53.140;6.498;2023-02-28T07:51:43;16.07;;;7.60;;
52878;SDS011;38747;53.140;6.498;2023-02-28T07:54:09;15.93;;;7.82;;
52878;SDS011;38747;53.140;6.498;2023-02-28T07:56:35;16.70;;;7.90;;
52878;SDS011;38747;53.140;6.498;2023-02-28T07:59:00;15.33;;;7.70;;
52878;SDS011;38747;53.140;6.498;2023-02-28T08:01:27;17.55;;;7.80;;
52878;SDS011;38747;53.140;6.498;2023-02-28T08:03:52;14.63;;;7.50;;
52878;SDS011;38747;53.140;6.498;2023-02-28T08:06:20;15.35;;;7.55;;
52878;SDS011;38747;53.140;6.498;2023-02-28T08:08:48;14.02;;;7.40;;
52878;SDS011;38747;53.140;6.498;2023-02-28T08:11:14;15.07;;;7.68;;
52878;SDS011;38747;53.140;6.498;2023-02-28T08:13:41;13.65;;;7.15;;
52878;SDS011;38747;53.140;6.498;2023-02-28T08:16:08;14.70;;;7.60;;
52878;SDS011;38747;53.140;6.498;2023-02-28T08:18:35;15.82;;;7.88;;
52878;SDS011;38747;53.140;6.498;2023-02-28T08:21:07;15.93;;;7.30;;
52878;SDS011;38747;53.140;6.498;2023-02-28T08:23:33;13.55;;;7.32;;
52878;SDS011;38747;53.140;6.498;2023-02-28T08:26:00;15.83;;;7.33;;
52878;SDS011;38747;53.140;6.498;2023-02-28T08:28:25;14.57;;;7.68;;
52878;SDS011;38747;53.140;6.498;2023-02-28T08:30:51;15.43;;;7.43;;
52878;SDS011;38747;53.140;6.498;2023-02-28T08:33:16;18.30;;;8.00;;
52878;SDS011;38747;53.140;6.498;2023-02-28T08:35:42;16.20;;;7.20;;
52878;SDS011;38747;53.140;6.498;2023-02-28T08:38:07;14.77;;;7.57;;
52878;SDS011;38747;53.140;6.498;2023-02-28T08:40:33;16.98;;;7.80;;
52878;SDS011;38747;53.140;6.498;2023-02-28T08:42:59;14.30;;;7.67;;
52878;SDS011;38747;53.140;6.498;2023-02-28T08:45:25;16.42;;;7.65;;
52878;SDS011;38747;53.140;6.498;2023-02-28T08:47:51;16.33;;;8.03;;
52878;SDS011;38747;53.140;6.498;2023-02-28T08:50:17;14.98;;;7.63;;
52878;SDS011;38747;53.140;6.498;2023-02-28T08:52:43;15.30;;;8.00;;
52878;SDS011;38747;53.140;6.498;2023-02-28T08:55:09;15.67;;;7.60;;
52878;SDS011;38747;53.140;6.498;2023-02-28T08:57:35;15.18;;;7.72;;
52878;SDS011;38747;53.140;6.498;2023-02-28T09:00:01;15.52;;;8.02;;
52878;SDS011;38747;53.140;6.498;2023-02-28T09:02:31;14.30;;;7.53;;
52878;SDS011;38747;53.140;6.498;2023-02-28T09:05:00;15.77;;;8.32;;
52878;SDS011;38747;53.140;6.498;2023-02-28T09:07:25;17.40;;;8.40;;
52878;SDS011;38747;53.140;6.498;2023-02-28T09:09:51;15.77;;;8.13;;
52878;SDS011;38747;53.140;6.498;2023-02-28T09:12:23;13.43;;;7.78;;
52878;SDS011;38747;53.140;6.498;2023-02-28T09:14:50;16.60;;;8.43;;
52878;SDS011;38747;53.140;6.498;2023-02-28T09:17:16;15.30;;;8.90;;
52878;SDS011;38747;53.140;6.498;2023-02-28T09:19:42;17.65;;;9.25;;
52878;SDS011;38747;53.140;6.498;2023-02-28T09:22:09;18.73;;;8.80;;
52878;SDS011;38747;53.140;6.498;2023-02-28T09:24:36;16.70;;;8.68;;
52878;SDS011;38747;53.140;6.498;2023-02-28T09:27:03;14.27;;;7.82;;
52878;SDS011;38747;53.140;6.498;2023-02-28T09:29:29;17.20;;;8.47;;
52878;SDS011;38747;53.140;6.498;2023-02-28T09:31:55;14.80;;;8.30;;
52878;SDS011;38747;53.140;6.498;2023-02-28T09:34:23;15.07;;;8.18;;
52878;SDS011;38747;53.140;6.498;2023-02-28T09:36:49;15.18;;;8.27;;
52878;SDS011;38747;53.140;6.498;2023-02-28T09:39:19;15.80;;;8.45;;
52878;SDS011;38747;53.140;6.498;2023-02-28T09:41:47;14.00;;;7.80;;
52878;SDS011;38747;53.140;6.498;2023-02-28T09:47:01;15.68;;;7.78;;
52878;SDS011;38747;53.140;6.498;2023-02-28T09:49:37;16.00;;;7.68;;
52878;SDS011;38747;53.140;6.498;2023-02-28T09:52:10;14.57;;;7.75;;
52878;SDS011;38747;53.140;6.498;2023-02-28T09:54:38;15.37;;;7.57;;
52878;SDS011;38747;53.140;6.498;2023-02-28T09:57:19;14.63;;;7.30;;
52878;SDS011;38747;53.140;6.498;2023-02-28T10:00:03;15.38;;;7.07;;
52878;SDS011;38747;53.140;6.498;2023-02-28T10:05:06;13.88;;;7.07;;
52878;SDS011;38747;53.140;6.498;2023-02-28T10:10:37;12.68;;;6.88;;
52878;SDS011;38747;53.140;6.498;2023-02-28T10:13:28;12.38;;;6.88;;
52878;SDS011;38747;53.140;6.498;2023-02-28T10:16:01;12.80;;;6.45;;
52878;SDS011;38747;53.140;6.498;2023-02-28T10:18:39;11.95;;;6.25;;
52878;SDS011;38747;53.140;6.498;2023-02-28T10:24:23;11.77;;;6.53;;
52878;SDS011;38747;53.140;6.498;2023-02-28T10:26:56;10.30;;;5.57;;
52878;SDS011;38747;53.140;6.498;2023-02-28T10:29:26;10.20;;;5.47;;
52878;SDS011;38747;53.140;6.498;2023-02-28T10:32:01;9.43;;;5.13;;
52878;SDS011;38747;53.140;6.498;2023-02-28T10:34:28;11.60;;;5.23;;
52878;SDS011;38747;53.140;6.498;2023-02-28T10:36:54;11.27;;;4.65;;
52878;SDS011;38747;53.140;6.498;2023-02-28T10:39:38;10.25;;;5.07;;
52878;SDS011;38747;53.140;6.498;2023-02-28T10:42:18;10.48;;;5.45;;
52878;SDS011;38747;53.140;6.498;2023-02-28T10:45:01;10.37;;;4.63;;
52878;SDS011;38747;53.140;6.498;2023-02-28T10:47:33;9.60;;;4.63;;
52878;SDS011;38747;53.140;6.498;2023-02-28T10:50:01;8.98;;;4.35;;
52878;SDS011;38747;53.140;6.498;2023-02-28T10:52:37;10.60;;;4.50;;
52878;SDS011;38747;53.140;6.498;2023-02-28T10:55:21;11.60;;;4.50;;
52878;SDS011;38747;53.140;6.498;2023-02-28T10:57:48;8.90;;;4.38;;
52878;SDS011;38747;53.140;6.498;2023-02-28T11:00:22;8.73;;;3.65;;
52878;SDS011;38747;53.140;6.498;2023-02-28T11:02:50;7.43;;;3.80;;
52878;SDS011;38747;53.140;6.498;2023-02-28T11:05:26;9.25;;;3.80;;
52878;SDS011;38747;53.140;6.498;2023-02-28T11:08:05;8.67;;;3.93;;
52878;SDS011;38747;53.140;6.498;2023-02-28T11:10:37;9.45;;;3.97;;
52878;SDS011;38747;53.140;6.498;2023-02-28T11:13:03;8.95;;;3.70;;
52878;SDS011;38747;53.140;6.498;2023-02-28T11:15:31;8.95;;;3.67;;
52878;SDS011;38747;53.140;6.498;2023-02-28T11:20:30;9.03;;;3.93;;
52878;SDS011;38747;53.140;6.498;2023-02-28T11:22:58;9.30;;;4.05;;
52878;SDS011;38747;53.140;6.498;2023-02-28T11:25:28;9.07;;;3.83;;
52878;SDS011;38747;53.140;6.498;2023-02-28T11:27:59;7.40;;;2.80;;
52878;SDS011;38747;53.140;6.498;2023-02-28T11:30:35;7.00;;;2.90;;
52878;SDS011;38747;53.140;6.498;2023-02-28T11:35:51;7.10;;;2.60;;
52878;SDS011;38747;53.140;6.498;2023-02-28T11:38:21;7.53;;;3.00;;
52878;SDS011;38747;53.140;6.498;2023-02-28T11:43:26;8.07;;;3.10;;
52878;SDS011;38747;53.140;6.498;2023-02-28T11:46:05;7.43;;;3.30;;
52878;SDS011;38747;53.140;6.498;2023-02-28T11:48:53;6.85;;;3.15;;
52878;SDS011;38747;53.140;6.498;2023-02-28T11:51:24;9.10;;;3.20;;
52878;SDS011;38747;53.140;6.498;2023-02-28T11:56:54;7.90;;;3.30;;
52878;SDS011;38747;53.140;6.498;2023-02-28T12:05:34;8.23;;;3.63;;
52878;SDS011;38747;53.140;6.498;2023-02-28T12:17:00;7.88;;;3.63;;
52878;SDS011;38747;53.140;6.498;2023-02-28T12:24:26;9.37;;;4.00;;
52878;SDS011;38747;53.140;6.498;2023-02-28T12:27:06;10.50;;;4.43;;
52878;SDS011;38747;53.140;6.498;2023-02-28T12:30:21;8.70;;;3.90;;
52878;SDS011;38747;53.140;6.498;2023-02-28T12:32:35;8.18;;;3.60;;
52878;SDS011;38747;53.140;6.498;2023-02-28T12:37:52;8.80;;;3.97;;
52878;SDS011;38747;53.140;6.498;2023-02-28T12:41:09;8.65;;;3.60;;
52878;SDS011;38747;53.140;6.498;2023-02-28T12:43:33;6.80;;;3.50;;
52878;SDS011;38747;53.140;6.498;2023-02-28T12:46:03;6.68;;;3.90;;
52878;SDS011;38747;53.140;6.498;2023-02-28T12:51:13;8.43;;;4.13;;
52878;SDS011;38747;53.140;6.498;2023-02-28T12:56:34;9.20;;;4.32;;
52878;SDS011;38747;53.140;6.498;2023-02-28T12:59:19;7.10;;;4.20;;
52878;SDS011;38747;53.140;6.498;2023-02-28T13:09:53;8.60;;;4.00;;
52878;SDS011;38747;53.140;6.498;2023-02-28T13:12:20;8.20;;;4.05;;
52878;SDS011;38747;53.140;6.498;2023-02-28T13:14:47;8.98;;;4.40;;
52878;SDS011;38747;53.140;6.498;2023-02-28T13:17:21;9.18;;;4.72;;
52878;SDS011;38747;53.140;6.498;2023-02-28T13:24:54;7.70;;;4.00;;
52878;SDS011;38747;53.140;6.498;2023-02-28T13:27:31;8.15;;;4.07;;
52878;SDS011;38747;53.140;6.498;2023-02-28T13:33:27;10.70;;;4.82;;
52878;SDS011;38747;53.140;6.498;2023-02-28T13:38:46;9.70;;;4.32;;
52878;SDS011;38747;53.140;6.498;2023-02-28T13:54:52;9.35;;;4.60;;
52878;SDS011;38747;53.140;6.498;2023-02-28T14:00:20;9.07;;;4.60;;
52878;SDS011;38747;53.140;6.498;2023-02-28T14:05:46;11.23;;;4.78;;
52878;SDS011;38747;53.140;6.498;2023-02-28T14:08:14;8.55;;;4.38;;
52878;SDS011;38747;53.140;6.498;2023-02-28T14:10:49;9.73;;;4.30;;
52878;SDS011;38747;53.140;6.498;2023-02-28T14:16:10;8.23;;;4.68;;
52878;SDS011;38747;53.140;6.498;2023-02-28T14:18:42;10.52;;;4.45;;
52878;SDS011;38747;53.140;6.498;2023-02-28T14:21:23;8.90;;;4.32;;
52878;SDS011;38747;53.140;6.498;2023-02-28T14:23:57;10.20;;;4.70;;
52878;SDS011;38747;53.140;6.498;2023-02-28T14:27:00;9.35;;;4.57;;
52878;SDS011;38747;53.140;6.498;2023-02-28T14:32:51;9.27;;;4.65;;
52878;SDS011;38747;53.140;6.498;2023-02-28T14:38:47;9.37;;;4.33;;
52878;SDS011;38747;53.140;6.498;2023-02-28T14:41:20;9.30;;;4.40;;
52878;SDS011;38747;53.140;6.498;2023-02-28T14:43:49;10.02;;;4.50;;
52878;SDS011;38747;53.140;6.498;2023-02-28T14:46:16;8.50;;;4.70;;
52878;SDS011;38747;53.140;6.498;2023-02-28T14:48:47;10.25;;;4.95;;
52878;SDS011;38747;53.140;6.498;2023-02-28T14:51:18;10.23;;;5.13;;
52878;SDS011;38747;53.140;6.498;2023-02-28T14:53:48;11.82;;;5.07;;
52878;SDS011;38747;53.140;6.498;2023-02-28T14:56:27;10.13;;;5.20;;
52878;SDS011;38747;53.140;6.498;2023-02-28T14:58:59;9.40;;;4.68;;
52878;SDS011;38747;53.140;6.498;2023-02-28T15:01:24;10.33;;;5.17;;
52878;SDS011;38747;53.140;6.498;2023-02-28T15:04:01;10.65;;;4.90;;
52878;SDS011;38747;53.140;6.498;2023-02-28T15:06:30;8.43;;;5.07;;
52878;SDS011;38747;53.140;6.498;2023-02-28T15:09:11;9.43;;;4.38;;
52878;SDS011;38747;53.140;6.498;2023-02-28T15:11:40;10.63;;;5.07;;
52878;SDS011;38747;53.140;6.498;2023-02-28T15:14:07;8.23;;;4.53;;
52878;SDS011;38747;53.140;6.498;2023-02-28T15:16:39;9.38;;;4.93;;
52878;SDS011;38747;53.140;6.498;2023-02-28T15:22:07;11.30;;;5.28;;
52878;SDS011;38747;53.140;6.498;2023-02-28T15:24:49;10.10;;;5.03;;
52878;SDS011;38747;53.140;6.498;2023-02-28T15:27:29;9.75;;;5.07;;
52878;SDS011;38747;53.140;6.498;2023-02-28T15:30:39;10.40;;;5.30;;
52878;SDS011;38747;53.140;6.498;2023-02-28T15:35:43;10.20;;;5.28;;
52878;SDS011;38747;53.140;6.498;2023-02-28T15:40:50;9.27;;;4.65;;
52878;SDS011;38747;53.140;6.498;2023-02-28T15:43:28;9.73;;;4.82;;
52878;SDS011;38747;53.140;6.498;2023-02-28T15:46:03;8.88;;;4.75;;
52878;SDS011;38747;53.140;6.498;2023-02-28T15:48:33;8.98;;;4.85;;
52878;SDS011;38747;53.140;6.498;2023-02-28T15:53:47;10.70;;;5.40;;
52878;SDS011;38747;53.140;6.498;2023-02-28T15:56:21;9.70;;;5.00;;
52878;SDS011;38747;53.140;6.498;2023-02-28T15:59:18;11.80;;;5.47;;
52878;SDS011;38747;53.140;6.498;2023-02-28T16:02:01;9.45;;;5.10;;
52878;SDS011;38747;53.140;6.498;2023-02-28T16:07:27;8.63;;;5.10;;
52878;SDS011;38747;53.140;6.498;2023-02-28T16:09:53;10.77;;;6.15;;
52878;SDS011;38747;53.140;6.498;2023-02-28T16:12:20;9.95;;;5.03;;
52878;SDS011;38747;53.140;6.498;2023-02-28T16:14:50;12.60;;;5.37;;
52878;SDS011;38747;53.140;6.498;2023-02-28T16:17:21;10.25;;;5.32;;
52878;SDS011;38747;53.140;6.498;2023-02-28T16:19:52;10.05;;;5.13;;
52878;SDS011;38747;53.140;6.498;2023-02-28T16:22:18;10.07;;;5.60;;
52878;SDS011;38747;53.140;6.498;2023-02-28T16:24:44;9.37;;;5.37;;
52878;SDS011;38747;53.140;6.498;2023-02-28T16:27:25;9.35;;;5.28;;
52878;SDS011;38747;53.140;6.498;2023-02-28T16:29:55;9.55;;;5.35;;
52878;SDS011;38747;53.140;6.498;2023-02-28T16:32:20;9.90;;;5.30;;
52878;SDS011;38747;53.140;6.498;2023-02-28T16:34:46;9.73;;;5.63;;
52878;SDS011;38747;53.140;6.498;2023-02-28T16:37:16;9.73;;;5.63;;
52878;SDS011;38747;53.140;6.498;2023-02-28T16:39:43;8.35;;;5.43;;
52878;SDS011;38747;53.140;6.498;2023-02-28T16:42:20;9.45;;;5.50;;
52878;SDS011;38747;53.140;6.498;2023-02-28T16:44:50;9.02;;;5.32;;
52878;SDS011;38747;53.140;6.498;2023-02-28T16:47:16;9.37;;;5.37;;
52878;SDS011;38747;53.140;6.498;2023-02-28T16:49:42;11.73;;;5.65;;
52878;SDS011;38747;53.140;6.498;2023-02-28T16:52:09;10.60;;;5.43;;
52878;SDS011;38747;53.140;6.498;2023-02-28T16:54:37;9.70;;;5.43;;
52878;SDS011;38747;53.140;6.498;2023-02-28T16:57:04;9.48;;;5.40;;
52878;SDS011;38747;53.140;6.498;2023-02-28T16:59:31;12.93;;;5.73;;
52878;SDS011;38747;53.140;6.498;2023-02-28T17:01:57;10.52;;;5.18;;
52878;SDS011;38747;53.140;6.498;2023-02-28T17:04:27;12.43;;;5.55;;
52878;SDS011;38747;53.140;6.498;2023-02-28T17:06:52;11.63;;;5.85;;
52878;SDS011;38747;53.140;6.498;2023-02-28T17:09:19;10.82;;;6.00;;
52878;SDS011;38747;53.140;6.498;2023-02-28T17:11:46;10.23;;;5.63;;
52878;SDS011;38747;53.140;6.498;2023-02-28T17:14:13;9.73;;;5.57;;